EmailTwitter


Surface observations / United Kingdom / EGLC

Regions: Quebec | Canada | USA | Europe | France | UK | Elsewhere
Station
Display
Info & Location for EGLC | Help decoding METAR

Weather Conditions observed on 2018/05/26 at 19:20 UTC at LONDON CITY AIRP, UK (EGLC)

Temperature: 21.0 Celsius.

Dewpoint: 16.0 Celsius.

Relative Humidity: 73%

Humidex: 26.

Winds: East at 28 km/h or 15 knots.

Mean Sea level Pressure: 101.80 kilopascals.

Horizontal visibility: 6.21 statute miles or 9.94 kilometers.

Coded METAR:

EGLC 261920Z AUTO 08015KT 9999 NCD 21/16 Q1018=